Time;durP1;ratioP1;P1;durP2;ratioP2;P2;SDS_P1;SDS_P2;PMS_P1;PMS_P2;Temp;Humidity;BMP_temperature;BMP_pressure;BME280_temperature;BME280_humidity;BME280_pressure;Samples;Min_cycle;Max_cycle;Signal;HPM_P1;HPM_P2
2022/05/13 00:01:07;;;;;;;4.27;3.57;;;14.20;99.90;;;;;;5031485;28;20577;-76
2022/05/13 00:03:41;;;;;;;4.03;3.63;;;14.10;99.90;;;;;;5040894;28;20974;-76
2022/05/13 00:06:10;;;;;;;4.30;3.87;;;14.20;99.90;;;;;;5034481;28;20574;-76
2022/05/13 00:08:37;;;;;;;4.33;2.50;;;14.20;99.90;;;;;;5027808;28;20458;-76
2022/05/13 00:11:06;;;;;;;7.33;3.70;;;14.20;99.90;;;;;;5025112;28;20570;-76
2022/05/13 00:13:41;;;;;;;4.20;3.50;;;14.10;99.90;;;;;;5031341;28;20464;-76
2022/05/13 00:16:10;;;;;;;3.80;3.30;;;14.10;99.90;;;;;;5031378;28;20476;-76
2022/05/13 00:18:37;;;;;;;7.63;4.90;;;14.10;99.90;;;;;;5026359;28;20431;-78
2022/05/13 00:21:04;;;;;;;6.90;3.43;;;14.10;99.90;;;;;;5035319;28;20876;-76
2022/05/13 00:23:32;;;;;;;6.93;4.40;;;14.10;99.90;;;;;;5030892;28;20446;-76
2022/05/13 00:25:59;;;;;;;3.50;3.20;;;14.00;99.90;;;;;;5035815;28;20465;-76
2022/05/13 00:28:29;;;;;;;5.90;3.33;;;14.00;99.90;;;;;;5034725;28;21164;-76
2022/05/13 00:31:00;;;;;;;4.60;3.10;;;14.10;99.90;;;;;;5033008;28;20483;-76
2022/05/13 00:33:29;;;;;;;5.70;3.33;;;14.10;99.90;;;;;;5026252;28;20554;-76
2022/05/13 00:35:57;;;;;;;11.40;4.23;;;14.00;99.90;;;;;;5021633;28;20491;-75
2022/05/13 00:38:25;;;;;;;6.63;3.07;;;14.20;99.90;;;;;;5028630;28;20545;-75
2022/05/13 00:40:52;;;;;;;3.93;3.33;;;14.40;99.90;;;;;;5031712;28;20482;-75
2022/05/13 00:43:49;;;;;;;5.40;3.13;;;14.40;99.90;;;;;;5026050;28;20548;-75
2022/05/13 00:46:16;;;;;;;3.80;2.80;;;14.40;99.90;;;;;;5027510;28;20491;-75
2022/05/13 00:48:49;;;;;;;2.87;2.40;;;14.20;99.90;;;;;;5027432;28;20456;-75
2022/05/13 00:51:24;;;;;;;4.20;3.00;;;14.10;99.90;;;;;;5031553;28;20488;-75
2022/05/13 00:53:56;;;;;;;5.67;2.47;;;14.10;99.90;;;;;;5032894;28;20465;-75
2022/05/13 00:56:23;;;;;;;5.57;2.60;;;14.20;99.90;;;;;;5033283;28;20583;-75
2022/05/13 00:58:54;;;;;;;6.93;2.90;;;14.10;99.90;;;;;;5031303;28;20740;-75
2022/05/13 01:01:24;;;;;;;6.53;3.10;;;14.00;99.90;;;;;;5031968;28;20475;-77
2022/05/13 01:03:55;;;;;;;6.90;2.70;;;13.90;99.90;;;;;;5031523;28;20969;-75
2022/05/13 01:06:25;;;;;;;6.13;2.63;;;14.10;99.90;;;;;;5025461;28;20479;-75
2022/05/13 01:08:52;;;;;;;2.50;2.30;;;14.10;99.90;;;;;;5029844;28;21062;-77
2022/05/13 01:11:23;;;;;;;4.70;2.63;;;14.20;99.90;;;;;;5026518;28;20451;-75
2022/05/13 01:13:56;;;;;;;4.87;2.43;;;14.20;99.90;;;;;;5028926;28;20486;-76
2022/05/13 01:16:28;;;;;;;2.97;2.67;;;14.30;99.90;;;;;;5034573;28;22887;-76
2022/05/13 01:18:56;;;;;;;3.63;2.37;;;14.20;99.90;;;;;;5033211;28;20438;-77
2022/05/13 01:21:30;;;;;;;4.80;2.27;;;14.20;99.90;;;;;;5026392;28;21042;-76
2022/05/13 01:23:59;;;;;;;3.83;2.30;;;14.10;99.90;;;;;;5035883;28;20478;-76
2022/05/13 01:26:29;;;;;;;4.60;1.90;;;14.10;99.90;;;;;;5032400;28;21002;-75
2022/05/13 01:28:57;;;;;;;4.27;2.50;;;14.10;99.90;;;;;;5025824;28;20844;-77
2022/05/13 01:31:27;;;;;;;10.60;2.30;;;14.00;99.90;;;;;;5023472;28;20844;-75
2022/05/13 01:33:54;;;;;;;4.50;2.50;;;13.90;99.90;;;;;;5026582;28;20752;-75
2022/05/13 01:36:21;;;;;;;6.70;4.07;;;13.80;99.90;;;;;;5030491;28;20454;-76
2022/05/13 01:38:48;;;;;;;4.63;2.50;;;13.80;99.90;;;;;;5023438;28;20448;-76
2022/05/13 01:41:20;;;;;;;9.83;2.30;;;13.70;99.90;;;;;;5030599;28;20455;-76
2022/05/13 01:43:48;;;;;;;5.20;2.53;;;13.50;99.90;;;;;;5033149;28;20466;-76
2022/05/13 01:46:19;;;;;;;5.30;2.50;;;13.50;99.90;;;;;;5032696;28;20479;-76
2022/05/13 01:48:46;;;;;;;2.63;1.80;;;13.40;99.90;;;;;;5028130;28;20754;-75
2022/05/13 01:51:15;;;;;;;4.20;2.10;;;13.50;99.90;;;;;;5024025;28;20564;-75
2022/05/13 01:53:43;;;;;;;3.40;1.90;;;13.60;99.90;;;;;;5032734;28;20956;-75
2022/05/13 01:56:10;;;;;;;2.50;2.10;;;13.70;99.90;;;;;;5023625;28;20819;-77
2022/05/13 01:58:38;;;;;;;1.80;1.67;;;13.50;99.90;;;;;;5036369;28;20510;-75
2022/05/13 02:01:08;;;;;;;3.20;2.00;;;13.50;99.90;;;;;;5029328;28;20461;-75
2022/05/13 02:03:44;;;;;;;3.17;2.30;;;13.40;99.90;;;;;;5027965;28;21331;-75
2022/05/13 02:06:12;;;;;;;3.83;2.93;;;13.30;99.90;;;;;;5023651;28;20479;-76
2022/05/13 02:08:46;;;;;;;2.50;1.73;;;13.40;99.90;;;;;;5026192;28;20962;-75
2022/05/13 02:11:13;;;;;;;4.13;2.30;;;13.30;99.90;;;;;;5031402;28;21117;-76
2022/05/13 02:13:44;;;;;;;4.10;1.90;;;13.30;99.90;;;;;;5033624;28;20438;-76
2022/05/13 02:16:15;;;;;;;4.37;2.30;;;13.30;99.90;;;;;;5031755;28;20480;-76
2022/05/13 02:18:47;;;;;;;3.30;1.90;;;13.20;99.90;;;;;;5034967;28;20466;-75
2022/05/13 02:21:14;;;;;;;3.77;2.00;;;13.10;99.90;;;;;;5029011;28;20501;-75
2022/05/13 02:23:43;;;;;;;2.17;1.53;;;13.10;99.90;;;;;;5026492;28;20465;-75
2022/05/13 02:26:17;;;;;;;2.70;1.87;;;13.10;99.90;;;;;;5030766;28;20486;-76
2022/05/13 02:28:49;;;;;;;2.80;2.00;;;13.00;99.90;;;;;;5035086;28;20461;-76
2022/05/13 02:31:17;;;;;;;2.53;1.90;;;12.90;99.90;;;;;;5023175;28;20455;-76
2022/05/13 02:33:45;;;;;;;3.77;1.90;;;12.90;99.90;;;;;;5034516;28;20461;-76
2022/05/13 02:36:16;;;;;;;1.90;1.70;;;12.90;99.90;;;;;;5023605;28;20450;-76
2022/05/13 02:38:45;;;;;;;2.30;1.80;;;12.90;99.90;;;;;;5029637;28;20471;-76
2022/05/13 02:41:12;;;;;;;8.93;1.87;;;12.60;99.90;;;;;;5028135;28;20479;-76
2022/05/13 02:43:44;;;;;;;2.40;2.20;;;12.60;99.90;;;;;;5028502;28;20452;-76
2022/05/13 02:46:15;;;;;;;3.83;2.30;;;12.50;99.90;;;;;;5038725;28;20491;-76
2022/05/13 02:48:43;;;;;;;2.90;1.90;;;12.50;99.90;;;;;;5028904;28;20445;-76
2022/05/13 02:51:09;;;;;;;3.10;1.80;;;12.50;99.90;;;;;;5026849;28;20451;-75
2022/05/13 02:53:47;;;;;;;9.20;2.20;;;12.40;99.90;;;;;;5028360;28;20431;-75
2022/05/13 02:56:21;;;;;;;3.23;1.90;;;12.20;99.90;;;;;;5035663;28;20715;-76
2022/05/13 02:58:51;;;;;;;4.33;2.20;;;12.30;99.90;;;;;;5026880;28;20471;-75
2022/05/13 03:01:20;;;;;;;2.40;1.70;;;12.50;99.90;;;;;;5028146;28;21021;-75
2022/05/13 03:03:49;;;;;;;5.80;2.20;;;12.40;99.90;;;;;;5024053;28;21087;-76
2022/05/13 03:06:16;;;;;;;4.20;2.20;;;12.40;99.90;;;;;;5029586;28;20479;-75
2022/05/13 03:08:43;;;;;;;3.70;2.27;;;12.20;99.90;;;;;;5026049;28;21004;-76
2022/05/13 03:11:16;;;;;;;2.60;2.40;;;12.20;99.90;;;;;;5028948;28;20491;-75
2022/05/13 03:13:43;;;;;;;1.60;1.50;;;12.30;99.90;;;;;;5024265;28;20461;-75
2022/05/13 03:16:14;;;;;;;2.87;2.10;;;12.20;99.90;;;;;;5026860;28;20484;-75
2022/05/13 03:18:43;;;;;;;4.10;1.93;;;12.20;99.90;;;;;;5029125;28;20435;-75
2022/05/13 03:21:11;;;;;;;2.10;1.90;;;12.20;99.90;;;;;;5032408;28;20832;-76
2022/05/13 03:23:38;;;;;;;3.90;2.30;;;12.10;99.90;;;;;;5035892;28;20539;-76
2022/05/13 03:26:10;;;;;;;4.77;1.50;;;12.20;99.90;;;;;;5033346;28;21379;-76
2022/05/13 03:28:44;;;;;;;3.37;2.00;;;12.30;99.90;;;;;;5020929;28;20516;-76
2022/05/13 03:31:11;;;;;;;3.93;2.83;;;12.40;99.90;;;;;;5026457;28;20545;-76
2022/05/13 03:33:42;;;;;;;6.43;2.07;;;12.50;99.90;;;;;;5026575;28;20630;-76
2022/05/13 03:36:10;;;;;;;4.60;1.53;;;12.70;99.90;;;;;;5026324;28;20491;-75
2022/05/13 03:38:37;;;;;;;5.17;2.43;;;12.60;99.90;;;;;;5032335;28;21596;-78
2022/05/13 03:41:07;;;;;;;4.90;2.30;;;12.60;99.90;;;;;;5024768;28;20466;-78
2022/05/13 03:43:38;;;;;;;5.37;2.23;;;12.50;99.90;;;;;;5024833;28;20459;-77
2022/05/13 03:46:09;;;;;;;5.90;3.40;;;12.60;99.90;;;;;;5014473;28;20494;-76
2022/05/13 03:48:41;;;;;;;4.37;2.20;;;12.60;99.90;;;;;;5034988;28;20858;-76
2022/05/13 03:51:14;;;;;;;3.50;2.17;;;12.60;99.90;;;;;;5032592;28;20956;-77
2022/05/13 03:53:41;;;;;;;7.37;2.23;;;12.60;99.90;;;;;;5037320;28;20546;-77
2022/05/13 03:56:08;;;;;;;4.60;2.63;;;12.50;99.90;;;;;;5037756;28;21153;-77
2022/05/13 03:58:36;;;;;;;5.27;2.87;;;12.60;99.90;;;;;;5030320;28;20460;-77
2022/05/13 04:01:03;;;;;;;2.90;2.20;;;12.60;99.90;;;;;;5030056;28;20478;-76
2022/05/13 04:03:30;;;;;;;3.47;2.47;;;12.60;99.90;;;;;;5027698;28;20514;-76
2022/05/13 04:08:57;;;;;;;6.07;2.00;;;12.50;99.90;;;;;;5026656;28;20828;-76
2022/05/13 04:11:24;;;;;;;2.17;1.97;;;12.50;99.90;;;;;;5029153;28;21001;-76
2022/05/13 04:16:35;;;;;;;2.50;2.27;;;12.30;99.90;;;;;;5020005;28;20452;-76
2022/05/13 04:19:05;;;;;;;2.57;2.10;;;12.30;99.90;;;;;;5038969;28;21340;-76
2022/05/13 04:21:35;;;;;;;2.30;1.60;;;12.40;99.90;;;;;;5034804;28;20444;-76
2022/05/13 04:24:11;;;;;;;3.87;2.63;;;12.40;99.90;;;;;;5042236;28;20521;-76
2022/05/13 04:26:38;;;;;;;3.00;1.90;;;12.40;99.90;;;;;;5039472;28;20437;-76
2022/05/13 04:29:08;;;;;;;8.33;2.03;;;12.30;99.90;;;;;;5038708;28;20935;-76
2022/05/13 04:31:44;;;;;;;5.07;2.10;;;12.30;99.90;;;;;;5031334;28;20464;-76
2022/05/13 04:34:12;;;;;;;5.40;1.80;;;12.30;99.90;;;;;;5037428;28;20948;-77
2022/05/13 04:36:39;;;;;;;5.80;1.83;;;12.40;99.90;;;;;;5037655;28;20470;-76
2022/05/13 04:39:07;;;;;;;3.93;1.80;;;12.50;99.90;;;;;;5037730;28;20555;-75
2022/05/13 04:44:21;;;;;;;1.50;1.40;;;12.30;99.90;;;;;;5046280;28;20761;-77
2022/05/13 04:46:48;;;;;;;9.23;3.40;;;12.40;99.90;;;;;;5039012;28;20441;-77
2022/05/13 04:49:15;;;;;;;2.37;1.80;;;12.40;99.90;;;;;;5034002;28;20953;-77
2022/05/13 04:51:42;;;;;;;2.77;1.90;;;12.50;99.90;;;;;;5039769;28;20896;-76
2022/05/13 04:54:15;;;;;;;2.57;1.80;;;12.80;99.90;;;;;;5041167;28;20437;-77
2022/05/13 04:56:41;;;;;;;2.13;1.87;;;13.00;99.90;;;;;;5033122;28;20468;-76
2022/05/13 04:59:10;;;;;;;3.10;2.07;;;12.90;99.90;;;;;;5037272;28;20476;-77
2022/05/13 05:01:39;;;;;;;3.53;1.90;;;12.90;99.90;;;;;;5037320;28;22098;-77
2022/05/13 05:04:07;;;;;;;4.80;2.50;;;13.00;99.90;;;;;;5044068;28;20463;-76
2022/05/13 05:06:34;;;;;;;6.17;2.77;;;12.90;99.90;;;;;;5029019;28;20529;-77
2022/05/13 05:09:03;;;;;;;3.87;2.20;;;12.90;99.90;;;;;;5036555;28;20551;-77
2022/05/13 05:11:31;;;;;;;4.27;1.80;;;12.80;99.90;;;;;;5041864;28;21060;-77
2022/05/13 05:14:04;;;;;;;1.40;1.20;;;12.80;99.90;;;;;;5038467;28;20498;-77
2022/05/13 05:16:31;;;;;;;8.47;3.23;;;12.90;99.90;;;;;;5028332;28;20486;-77
2022/05/13 05:19:06;;;;;;;9.83;3.43;;;13.00;99.90;;;;;;5043096;28;20456;-75
2022/05/13 05:21:33;;;;;;;2.10;1.80;;;13.20;99.90;;;;;;5036617;28;20456;-76
2022/05/13 05:23:59;;;;;;;5.70;1.70;;;13.30;99.90;;;;;;5036948;28;20500;-76
2022/05/13 05:26:26;;;;;;;5.10;2.30;;;13.30;99.90;;;;;;5041654;28;20911;-77
2022/05/13 05:28:54;;;;;;;2.93;2.00;;;13.30;99.90;;;;;;5031220;28;20818;-77
2022/05/13 05:31:21;;;;;;;3.50;2.57;;;13.50;99.90;;;;;;5036991;28;20862;-77
2022/05/13 05:33:48;;;;;;;7.00;2.20;;;13.70;99.90;;;;;;5035836;28;20438;-76
2022/05/13 05:36:15;;;;;;;5.93;2.00;;;13.60;99.90;;;;;;5031554;28;20488;-77
2022/05/13 05:38:41;;;;;;;4.90;2.50;;;13.70;99.90;;;;;;5030654;28;20540;-77
2022/05/13 05:41:08;;;;;;;2.43;1.63;;;13.70;99.90;;;;;;5039797;28;20450;-77
2022/05/13 05:43:35;;;;;;;3.30;1.90;;;13.80;99.90;;;;;;5033052;28;20430;-76
2022/05/13 05:46:06;;;;;;;10.80;2.70;;;13.80;99.90;;;;;;5034048;28;20526;-77
2022/05/13 05:48:33;;;;;;;7.83;2.63;;;13.60;99.90;;;;;;5028940;28;21466;-77
2022/05/13 05:51:01;;;;;;;3.87;2.50;;;13.60;99.90;;;;;;5039856;28;20446;-76
2022/05/13 05:59:14;;;;;;;2.10;1.20;;;13.80;99.90;;;;;;5033005;28;20418;-77
2022/05/13 06:01:44;;;;;;;4.03;2.10;;;13.70;99.90;;;;;;5036510;28;20437;-74
2022/05/13 06:04:10;;;;;;;5.17;2.53;;;13.80;99.90;;;;;;5040867;28;20463;-79
2022/05/13 06:06:37;;;;;;;5.70;2.27;;;14.00;99.90;;;;;;5036586;28;20446;-77
2022/05/13 06:09:04;;;;;;;4.10;2.20;;;14.20;99.90;;;;;;5044161;28;20438;-78
2022/05/13 06:11:31;;;;;;;4.13;1.60;;;14.30;99.90;;;;;;5040930;28;20462;-78
2022/05/13 06:14:00;;;;;;;2.40;1.80;;;14.20;99.90;;;;;;5036201;28;20909;-77
2022/05/13 06:16:29;;;;;;;2.63;1.90;;;14.10;99.90;;;;;;5037457;28;20485;-78
2022/05/13 06:19:00;;;;;;;8.80;2.53;;;14.30;99.90;;;;;;5041832;28;20442;-78
2022/05/13 06:21:33;;;;;;;3.17;2.60;;;14.60;99.90;;;;;;5040760;28;21199;-78
2022/05/13 06:24:00;;;;;;;2.83;1.83;;;14.90;99.90;;;;;;5042722;28;20451;-78
2022/05/13 06:26:31;;;;;;;6.23;2.80;;;15.00;99.90;;;;;;5041109;28;20854;-79
2022/05/13 06:28:58;;;;;;;7.83;2.37;;;15.30;99.90;;;;;;5035980;28;20513;-78
2022/05/13 06:31:26;;;;;;;4.93;2.33;;;15.50;99.90;;;;;;5036727;28;20976;-79
2022/05/13 06:33:53;;;;;;;3.20;2.33;;;15.80;99.90;;;;;;5042654;28;20459;-78
2022/05/13 06:36:21;;;;;;;6.63;2.93;;;16.30;99.90;;;;;;5037571;28;20486;-79
2022/05/13 06:38:48;;;;;;;9.60;2.47;;;16.60;99.90;;;;;;5039530;28;20495;-80
2022/05/13 06:41:15;;;;;;;11.73;2.03;;;16.80;99.90;;;;;;5041737;28;20547;-80
2022/05/13 06:43:42;;;;;;;5.30;1.80;;;16.70;99.90;;;;;;5041898;28;20469;-76
2022/05/13 06:46:10;;;;;;;10.13;2.03;;;17.20;99.90;;;;;;5036030;28;20488;-79
2022/05/13 06:48:37;;;;;;;2.70;2.03;;;17.80;99.90;;;;;;5043275;28;20549;-80
2022/05/13 06:51:07;;;;;;;4.23;2.37;;;17.80;99.90;;;;;;5043877;28;20460;-80
2022/05/13 06:53:38;;;;;;;11.60;3.23;;;17.90;99.90;;;;;;5042559;28;20464;-80
2022/05/13 06:56:06;;;;;;;3.50;2.80;;;18.50;99.90;;;;;;5044167;28;20525;-78
2022/05/13 06:58:37;;;;;;;7.83;2.43;;;18.20;99.90;;;;;;5042479;28;20744;-78
2022/05/13 07:01:04;;;;;;;4.97;2.13;;;18.80;99.90;;;;;;5042748;28;20500;-79
2022/05/13 07:03:42;;;;;;;6.50;2.73;;;19.10;99.90;;;;;;5043803;28;20488;-77
2022/05/13 07:06:09;;;;;;;4.10;2.70;;;19.40;99.90;;;;;;5036857;28;20473;-78
2022/05/13 07:08:36;;;;;;;4.60;2.50;;;19.70;99.90;;;;;;5039664;28;20976;-78
2022/05/13 07:11:04;;;;;;;6.13;3.50;;;20.00;99.90;;;;;;5044579;28;20476;-78
2022/05/13 07:13:30;;;;;;;7.00;2.30;;;20.20;99.90;;;;;;5044151;28;20431;-77
2022/05/13 07:15:58;;;;;;;5.70;2.60;;;19.50;99.90;;;;;;5047238;28;20475;-78
2022/05/13 07:18:25;;;;;;;5.00;2.70;;;18.80;99.90;;;;;;5043311;28;20539;-77
2022/05/13 07:20:53;;;;;;;7.40;2.53;;;18.40;99.90;;;;;;5041501;28;20945;-77
2022/05/13 07:23:20;;;;;;;9.37;2.87;;;17.80;99.90;;;;;;5041603;28;20476;-77
2022/05/13 07:25:47;;;;;;;4.90;3.77;;;17.70;99.90;;;;;;5037988;28;20577;-75
2022/05/13 07:28:15;;;;;;;2.97;2.37;;;17.60;99.90;;;;;;5041244;28;20472;-76
2022/05/13 07:30:46;;;;;;;5.87;2.70;;;17.40;99.90;;;;;;5036560;28;20469;-78
2022/05/13 07:33:14;;;;;;;7.73;3.10;;;17.50;99.90;;;;;;5039649;28;20459;-77
2022/05/13 07:35:43;;;;;;;6.97;2.43;;;17.70;99.90;;;;;;5043177;28;20484;-78
2022/05/13 07:38:10;;;;;;;2.63;2.40;;;17.90;99.90;;;;;;5043642;28;20468;-78
2022/05/13 07:43:21;;;;;;;3.77;2.37;;;18.10;99.90;;;;;;5038524;28;20521;-77
2022/05/13 07:45:48;;;;;;;3.47;2.70;;;18.30;99.90;;;;;;5044048;28;20558;-77
2022/05/13 07:48:15;;;;;;;6.00;3.63;;;18.80;99.90;;;;;;5038963;28;20461;-78
2022/05/13 07:50:48;;;;;;;6.40;1.87;;;19.00;99.90;;;;;;5040258;28;20514;-79
2022/05/13 07:53:17;;;;;;;11.47;2.53;;;19.00;99.90;;;;;;5044648;28;20460;-79
2022/05/13 07:55:48;;;;;;;4.63;2.30;;;19.10;99.90;;;;;;5043898;28;20916;-80
2022/05/13 07:58:18;;;;;;;9.07;2.00;;;19.70;99.90;;;;;;5046965;28;20607;-78
2022/05/13 08:00:47;;;;;;;3.50;2.00;;;20.50;99.90;;;;;;5045864;28;20464;-79
2022/05/13 08:03:15;;;;;;;5.70;3.27;;;20.80;99.90;;;;;;5041414;28;20491;-79
2022/05/13 08:05:45;;;;;;;8.07;2.80;;;20.80;99.90;;;;;;5045293;28;20479;-79
2022/05/13 08:08:16;;;;;;;5.93;2.23;;;20.70;99.90;;;;;;5049659;28;20460;-79
2022/05/13 08:10:54;;;;;;;8.73;2.93;;;20.70;99.90;;;;;;5048821;28;20514;-78
2022/05/13 08:13:21;;;;;;;4.17;2.20;;;21.00;99.90;;;;;;5044917;28;20487;-79
2022/05/13 08:15:52;;;;;;;5.87;2.67;;;21.30;99.90;;;;;;5043768;28;20507;-79
2022/05/13 08:18:21;;;;;;;7.93;2.17;;;21.40;99.90;;;;;;5042152;28;20525;-77
2022/05/13 08:20:52;;;;;;;5.60;1.90;;;22.10;99.90;;;;;;5047523;28;20508;-78
2022/05/13 08:23:18;;;;;;;3.97;1.80;;;22.50;99.90;;;;;;5053151;28;20511;-77
2022/05/13 08:25:46;;;;;;;6.73;2.10;;;22.60;99.90;;;;;;5049293;28;20564;-78
2022/05/13 08:28:15;;;;;;;4.93;2.20;;;22.50;99.10;;;;;;5047228;28;20659;-78
2022/05/13 08:30:43;;;;;;;6.23;2.40;;;23.20;97.40;;;;;;5042574;28;20456;-77
2022/05/13 08:33:12;;;;;;;2.70;2.00;;;22.90;97.60;;;;;;5044629;28;20461;-78
2022/05/13 08:35:51;;;;;;;5.30;2.10;;;23.30;98.10;;;;;;5048562;28;20527;-78
2022/05/13 08:38:21;;;;;;;3.93;1.83;;;23.30;97.80;;;;;;5047642;28;20452;-77
2022/05/13 08:41:14;;;;;;;3.87;1.73;;;23.50;96.30;;;;;;5046125;28;20452;-77
2022/05/13 08:43:47;;;;;;;5.23;1.80;;;23.20;96.10;;;;;;5049831;28;20478;-78
2022/05/13 08:46:24;;;;;;;3.43;1.77;;;23.30;97.80;;;;;;5042160;28;20495;-76
2022/05/13 08:48:58;;;;;;;7.83;2.80;;;23.70;94.70;;;;;;5043444;28;20465;-77
2022/05/13 08:51:36;;;;;;;4.37;2.10;;;23.50;94.70;;;;;;5040896;28;20465;-76
2022/05/13 08:54:10;;;;;;;5.43;2.77;;;23.60;95.10;;;;;;5043870;28;21004;-77
2022/05/13 08:56:38;;;;;;;8.10;2.80;;;23.70;94.10;;;;;;5001019;28;1126451;-77
2022/05/13 08:59:09;;;;;;;3.27;1.57;;;23.40;93.40;;;;;;5047084;28;20235;-78
2022/05/13 09:01:41;;;;;;;4.43;2.43;;;24.30;93.60;;;;;;5040783;28;20841;-77
2022/05/13 09:04:19;;;;;;;7.13;2.80;;;24.50;91.70;;;;;;5047712;28;20481;-77
2022/05/13 09:06:52;;;;;;;4.80;3.13;;;24.40;93.00;;;;;;5039588;28;20488;-76
2022/05/13 09:09:19;;;;;;;6.40;2.47;;;23.50;92.00;;;;;;5048030;28;20519;-77
2022/05/13 09:11:51;;;;;;;5.37;2.50;;;22.50;93.40;;;;;;5048804;28;20560;-78
2022/05/13 09:14:34;;;;;;;3.30;1.93;;;22.00;93.30;;;;;;5043486;28;20494;-78
2022/05/13 09:17:28;;;;;;;4.90;2.87;;;21.70;95.10;;;;;;5040995;28;20984;-77
2022/05/13 09:19:59;;;;;;;8.63;2.17;;;21.40;95.50;;;;;;5041581;28;20957;-77
2022/05/13 09:22:35;;;;;;;7.03;2.73;;;21.00;96.70;;;;;;5041699;28;20480;-77
2022/05/13 09:25:02;;;;;;;11.47;2.67;;;20.20;97.60;;;;;;5042578;28;20472;-77
2022/05/13 09:27:28;;;;;;;2.27;1.63;;;20.20;98.40;;;;;;5044953;28;20473;-76
2022/05/13 09:30:05;;;;;;;5.40;2.43;;;20.00;99.30;;;;;;5046400;28;20521;-77
2022/05/13 09:32:41;;;;;;;3.03;2.53;;;19.60;98.10;;;;;;5046217;28;20938;-77
2022/05/13 09:35:19;;;;;;;5.63;2.03;;;19.50;99.30;;;;;;5040473;28;20495;-78
2022/05/13 09:37:46;;;;;;;6.80;4.30;;;19.50;99.90;;;;;;5047065;28;20555;-76
2022/05/13 09:40:22;;;;;;;10.43;3.60;;;19.80;99.90;;;;;;5041788;28;20863;-78
2022/05/13 09:42:53;;;;;;;4.53;3.27;;;19.60;99.90;;;;;;5047292;28;20497;-77
2022/05/13 09:45:25;;;;;;;6.07;2.50;;;19.40;99.90;;;;;;5046124;28;20472;-76
2022/05/13 09:48:18;;;;;;;3.93;2.33;;;19.80;99.90;;;;;;5044415;28;20482;-77
2022/05/13 09:50:51;;;;;;;6.00;2.77;;;21.00;99.70;;;;;;5047003;28;20464;-78
2022/05/13 09:53:33;;;;;;;6.90;2.97;;;22.00;98.00;;;;;;5048022;28;20979;-78
2022/05/13 09:56:02;;;;;;;6.10;2.93;;;22.70;95.50;;;;;;5044744;28;20542;-77
2022/05/13 09:58:35;;;;;;;7.87;3.17;;;23.70;94.00;;;;;;5043233;28;20488;-79
2022/05/13 10:01:04;;;;;;;3.03;2.60;;;24.20;93.30;;;;;;5043904;28;20934;-78
2022/05/13 10:03:38;;;;;;;3.20;2.80;;;24.80;91.50;;;;;;5049577;28;20485;-77
2022/05/13 10:06:23;;;;;;;4.63;2.77;;;25.30;91.50;;;;;;5044663;28;20476;-78
2022/05/13 10:08:57;;;;;;;4.13;2.83;;;24.10;90.00;;;;;;5045476;28;20464;-78
2022/05/13 10:14:27;;;;;;;6.13;2.40;;;21.60;93.50;;;;;;5042277;28;20670;-77
2022/05/13 10:17:15;;;;;;;6.70;3.07;;;21.60;94.20;;;;;;5039911;28;20609;-79
2022/05/13 10:20:17;;;;;;;4.57;3.23;;;20.90;92.90;;;;;;5043705;28;20564;-78
2022/05/13 10:22:53;;;;;;;3.57;2.40;;;20.10;95.30;;;;;;5043183;28;21153;-77
2022/05/13 10:25:25;;;;;;;3.17;2.87;;;20.10;96.50;;;;;;5041731;28;20563;-78
2022/05/13 10:28:03;;;;;;;4.43;3.20;;;20.20;96.40;;;;;;5043745;28;20469;-78
2022/05/13 10:30:41;;;;;;;5.73;2.63;;;20.10;97.10;;;;;;5039708;28;20452;-78
2022/05/13 10:33:11;;;;;;;5.93;2.67;;;21.10;96.50;;;;;;5042870;28;20505;-77
2022/05/13 10:35:52;;;;;;;2.70;2.13;;;22.20;95.10;;;;;;5046031;28;20476;-78
2022/05/13 10:38:26;;;;;;;3.87;2.43;;;23.10;94.00;;;;;;5041913;28;20520;-78
2022/05/13 10:40:55;;;;;;;2.47;2.27;;;24.20;92.40;;;;;;5037521;28;20461;-78
2022/05/13 10:43:29;;;;;;;4.90;3.20;;;25.30;90.30;;;;;;5042116;28;20535;-77
2022/05/13 10:46:12;;;;;;;7.37;3.27;;;25.90;87.30;;;;;;5047077;28;20484;-78
2022/05/13 10:48:39;;;;;;;6.27;3.63;;;25.70;86.10;;;;;;5047281;28;20552;-76
2022/05/13 10:51:17;;;;;;;5.90;2.97;;;25.30;87.70;;;;;;5042071;28;20504;-78
2022/05/13 10:54:16;;;;;;;5.43;2.90;;;24.60;86.30;;;;;;5043866;28;20458;-78
2022/05/13 10:56:59;;;;;;;3.07;2.37;;;23.50;87.60;;;;;;5037078;28;20491;-78
2022/05/13 10:59:37;;;;;;;3.70;2.13;;;23.10;90.30;;;;;;5043515;28;20493;-78
2022/05/13 11:02:28;;;;;;;4.53;3.03;;;22.80;88.20;;;;;;5043645;28;20459;-77
2022/05/13 11:05:04;;;;;;;4.00;2.00;;;21.80;90.40;;;;;;5046178;28;20465;-78
2022/05/13 11:07:35;;;;;;;3.70;2.40;;;21.90;90.90;;;;;;5039890;28;20569;-78
2022/05/13 11:10:15;;;;;;;2.30;1.73;;;21.60;90.70;;;;;;5038663;28;20457;-79
2022/05/13 11:12:49;;;;;;;7.00;2.63;;;21.20;91.40;;;;;;5045796;28;20467;-77
2022/05/13 11:15:26;;;;;;;2.73;2.50;;;20.60;92.60;;;;;;5043000;28;20478;-77
2022/05/13 11:17:59;;;;;;;8.43;3.50;;;20.40;92.80;;;;;;5042240;28;20467;-78
2022/05/13 11:20:34;;;;;;;3.10;2.40;;;20.10;94.00;;;;;;5042664;28;20537;-79
2022/05/13 11:23:17;;;;;;;5.03;3.10;;;20.80;94.40;;;;;;5040440;28;20499;-77
2022/05/13 11:26:01;;;;;;;5.30;3.40;;;21.60;93.30;;;;;;5041919;28;20558;-80
2022/05/13 11:28:51;;;;;;;4.57;3.73;;;21.40;93.20;;;;;;5042934;28;20983;-77
2022/05/13 11:31:33;;;;;;;4.07;3.67;;;21.30;93.00;;;;;;5049342;28;20798;-77
2022/05/13 11:34:05;;;;;;;6.47;3.80;;;21.50;93.60;;;;;;5047167;28;20453;-78
2022/05/13 11:36:45;;;;;;;7.10;4.70;;;21.70;93.60;;;;;;5045867;28;20480;-78
2022/05/13 11:39:31;;;;;;;4.57;3.43;;;21.80;93.30;;;;;;5047201;28;20460;-76
2022/05/13 11:42:09;;;;;;;3.60;2.80;;;21.80;93.10;;;;;;5047811;28;20452;-78
2022/05/13 11:44:51;;;;;;;3.90;3.33;;;22.70;91.90;;;;;;5050446;28;20514;-79
2022/05/13 11:47:23;;;;;;;6.63;3.67;;;23.40;91.60;;;;;;5048423;28;20476;-77
2022/05/13 11:49:50;;;;;;;4.93;3.57;;;24.50;90.20;;;;;;5049597;28;20468;-77
2022/05/13 11:52:45;;;;;;;22.30;4.13;;;25.20;88.90;;;;;;5048713;28;20788;-78
2022/05/13 11:55:16;;;;;;;3.77;3.47;;;24.80;86.20;;;;;;5042900;28;20463;-77
2022/05/13 11:57:46;;;;;;;4.60;3.40;;;23.40;85.40;;;;;;5038722;28;20976;-76
2022/05/13 12:00:42;;;;;;;5.70;3.90;;;23.10;89.20;;;;;;5044226;28;20456;-77
2022/05/13 12:03:19;;;;;;;6.47;3.77;;;23.40;88.70;;;;;;5042963;28;20991;-77
2022/05/13 12:06:04;;;;;;;3.20;2.90;;;23.30;87.20;;;;;;5045207;28;20705;-77
2022/05/13 12:08:43;;;;;;;3.70;3.40;;;22.70;87.20;;;;;;5043859;28;20468;-77
2022/05/13 12:11:42;;;;;;;5.53;3.27;;;21.70;89.00;;;;;;5044983;28;20521;-77
2022/05/13 12:14:13;;;;;;;6.10;2.77;;;21.60;90.60;;;;;;5040876;28;20493;-76
2022/05/13 12:16:51;;;;;;;7.53;3.20;;;21.30;90.40;;;;;;5044434;28;21002;-79
2022/05/13 12:19:31;;;;;;;4.27;3.20;;;21.60;91.20;;;;;;5043806;28;20841;-76
2022/05/13 12:22:02;;;;;;;4.30;3.87;;;22.50;91.60;;;;;;5045588;28;21058;-78
2022/05/13 12:25:00;;;;;;;4.77;4.10;;;22.70;88.90;;;;;;5042058;28;20473;-78
2022/05/13 12:27:34;;;;;;;6.50;4.67;;;22.10;90.10;;;;;;5041054;28;20484;-78
2022/05/13 12:30:29;;;;;;;4.60;4.17;;;23.10;90.50;;;;;;5045104;28;20456;-78
2022/05/13 12:32:58;;;;;;;7.53;4.97;;;24.40;89.40;;;;;;5054168;22;20591;-76
2022/05/13 12:38:27;;;;;;;5.03;3.60;;;24.30;85.40;;;;;;5028211;28;20480;-76
2022/05/13 12:41:10;;;;;;;4.33;2.97;;;25.30;87.20;;;;;;5026427;28;20556;-76
2022/05/13 12:43:54;;;;;;;7.77;5.40;;;25.20;80.60;;;;;;5023417;28;20493;-75
2022/05/13 12:46:41;;;;;;;5.07;4.57;;;25.10;81.40;;;;;;5020054;28;20556;-76
2022/05/13 12:49:14;;;;;;;5.90;5.30;;;25.20;79.10;;;;;;5026648;28;20548;-76
2022/05/13 12:51:56;;;;;;;6.90;4.07;;;24.20;80.40;;;;;;5028225;28;20462;-75
2022/05/13 12:54:36;;;;;;;5.93;4.37;;;23.50;81.80;;;;;;5027682;28;20450;-76
2022/05/13 12:57:16;;;;;;;6.37;5.00;;;24.30;81.30;;;;;;5028163;28;20470;-77
2022/05/13 12:59:53;;;;;;;4.97;4.43;;;24.00;81.90;;;;;;5027968;28;20508;-76
2022/05/13 13:02:22;;;;;;;6.30;5.20;;;23.20;84.80;;;;;;5019662;28;20862;-76
2022/05/13 13:04:54;;;;;;;5.63;4.10;;;23.00;85.20;;;;;;5030701;28;21151;-76
2022/05/13 13:07:29;;;;;;;5.90;5.27;;;22.70;86.20;;;;;;5033449;28;20476;-74
2022/05/13 13:10:00;;;;;;;4.70;4.00;;;22.40;86.20;;;;;;5036296;28;20935;-76
2022/05/13 13:12:34;;;;;;;8.93;4.40;;;22.50;86.00;;;;;;5028703;28;20473;-75
2022/05/13 13:15:10;;;;;;;5.87;3.47;;;22.90;86.40;;;;;;5027647;28;20523;-75
2022/05/13 13:17:50;;;;;;;5.10;4.60;;;22.50;83.00;;;;;;5026707;28;20996;-76
2022/05/13 13:20:21;;;;;;;7.20;4.60;;;22.30;85.50;;;;;;5027071;28;20783;-76
2022/05/13 13:23:01;;;;;;;5.47;3.93;;;22.90;86.70;;;;;;5026422;28;20902;-76
2022/05/13 13:25:32;;;;;;;4.80;4.40;;;23.70;82.60;;;;;;5024482;28;20483;-76
2022/05/13 13:28:02;;;;;;;10.50;4.50;;;23.40;82.30;;;;;;5025494;28;20461;-75
2022/05/13 13:30:31;;;;;;;5.30;4.20;;;23.90;82.80;;;;;;5027681;28;20461;-76
2022/05/13 13:32:58;;;;;;;3.87;3.47;;;23.80;81.70;;;;;;5026626;28;20493;-76